createdAt,value
2017-01-20T00:00:10.643Z,-4.5
2017-01-20T00:00:52.197Z,-4.51
2017-01-20T00:01:33.878Z,-4.53
2017-01-20T00:02:15.577Z,-4.54
2017-01-20T00:02:57.287Z,-4.51
2017-01-20T00:03:38.925Z,-4.51
2017-01-20T00:04:20.611Z,-4.49
2017-01-20T00:05:02.287Z,-4.56
2017-01-20T00:05:44.048Z,-4.51
2017-01-20T00:06:25.753Z,-4.58
2017-01-20T00:08:15.182Z,-4.49
2017-01-20T00:08:56.930Z,-4.5
2017-01-20T00:10:46.217Z,-4.53
2017-01-20T00:11:27.959Z,-4.54
2017-01-20T00:13:18.149Z,-4.51
2017-01-20T00:13:59.794Z,-4.57
2017-01-20T00:16:15.092Z,-4.51
2017-01-20T00:16:56.729Z,-4.51
2017-01-20T00:17:38.474Z,-4.54
2017-01-20T00:19:33.132Z,-4.42
2017-01-20T00:21:27.714Z,-4.47
2017-01-20T00:22:09.472Z,-4.42
2017-01-20T00:23:58.760Z,-4.51
2017-01-20T00:25:37.784Z,-4.47
2017-01-20T00:26:19.409Z,-4.61
2017-01-20T00:28:14.014Z,-4.61
2017-01-20T00:28:55.750Z,-4.74
2017-01-20T00:29:37.400Z,-4.61
2017-01-20T00:31:32.006Z,-4.63
2017-01-20T00:32:13.628Z,-4.74
2017-01-20T00:32:55.226Z,-4.69
2017-01-20T00:33:37.003Z,-4.65
2017-01-20T00:34:18.560Z,-4.71
2017-01-20T00:35:00.294Z,-4.68
2017-01-20T00:37:00.359Z,-4.71
2017-01-20T00:37:42.068Z,-4.72
2017-01-20T00:38:23.797Z,-4.74
2017-01-20T00:39:05.553Z,-4.74
2017-01-20T00:41:20.907Z,-4.71
2017-01-20T00:42:02.645Z,-4.78
2017-01-20T00:42:44.435Z,-4.77
2017-01-20T00:43:26.192Z,-4.77
2017-01-20T00:44:07.913Z,-4.79
2017-01-20T00:44:49.664Z,-4.89
2017-01-20T00:45:31.425Z,-4.78
2017-01-20T00:46:13.097Z,-4.79
2017-01-20T00:46:54.880Z,-4.89
2017-01-20T00:47:36.604Z,-4.79
2017-01-20T00:48:18.334Z,-4.81
2017-01-20T00:48:59.953Z,-4.86
2017-01-20T00:51:15.312Z,-4.89
2017-01-20T00:51:56.935Z,-4.77
2017-01-20T00:52:38.631Z,-4.79
2017-01-20T00:53:20.377Z,-4.79
2017-01-20T00:54:02.075Z,-4.79
2017-01-20T00:54:43.746Z,-4.86
2017-01-20T00:55:25.466Z,-4.79
2017-01-20T00:56:07.051Z,-4.83
2017-01-20T00:56:48.814Z,-4.9
2017-01-20T00:57:30.454Z,-4.77
2017-01-20T00:58:12.118Z,-4.85
2017-01-20T00:58:53.856Z,-4.81
2017-01-20T00:59:35.585Z,-4.92
2017-01-20T01:01:30.265Z,-4.89
2017-01-20T01:02:11.833Z,-4.89
2017-01-20T01:02:53.416Z,-4.9
2017-01-20T01:03:34.995Z,-4.85
2017-01-20T01:04:16.314Z,-4.86
2017-01-20T01:05:55.274Z,-4.75
2017-01-20T01:06:36.978Z,-4.83
2017-01-20T01:07:18.227Z,-4.79
2017-01-20T01:07:59.874Z,-4.77
2017-01-20T01:09:49.197Z,-4.86
2017-01-20T01:10:30.948Z,-4.79
2017-01-20T01:11:12.593Z,-4.77
2017-01-20T01:11:54.369Z,-4.77
2017-01-20T01:12:36.088Z,-4.77
2017-01-20T01:13:17.332Z,-4.75
2017-01-20T01:13:58.979Z,-4.77
2017-01-20T01:14:40.613Z,-4.79
2017-01-20T01:15:22.236Z,-4.77
2017-01-20T01:17:37.557Z,-4.89
2017-01-20T01:18:19.304Z,-4.87
2017-01-20T01:19:01.038Z,-4.86
2017-01-20T01:19:42.768Z,-4.81
2017-01-20T01:20:24.493Z,-4.92
2017-01-20T01:21:06.224Z,-4.83
2017-01-20T01:21:48.004Z,-4.89
2017-01-20T01:22:29.718Z,-4.83
2017-01-20T01:23:11.514Z,-4.85
2017-01-20T01:23:53.276Z,-4.78
2017-01-20T01:24:35.009Z,-4.92
2017-01-20T01:25:16.771Z,-4.85
2017-01-20T01:25:58.575Z,-4.77
2017-01-20T01:26:40.168Z,-4.95
2017-01-20T01:27:21.616Z,-4.9
2017-01-20T01:28:03.361Z,-4.89
2017-01-20T01:28:44.772Z,-4.9
2017-01-20T01:29:26.509Z,-4.9
2017-01-20T01:30:08.196Z,-4.92
2017-01-20T01:30:49.960Z,-4.95
2017-01-20T01:31:31.699Z,-4.85
2017-01-20T01:32:13.387Z,-4.89
2017-01-20T01:32:54.996Z,-4.79
2017-01-20T01:33:36.524Z,-4.9
2017-01-20T01:35:31.202Z,-4.87
2017-01-20T01:36:12.878Z,-4.89
2017-01-20T01:36:54.679Z,-4.9
2017-01-20T01:37:36.342Z,-4.97
2017-01-20T01:38:17.890Z,-5.04
2017-01-20T01:38:59.664Z,-4.93
2017-01-20T01:40:49.027Z,-4.95
2017-01-20T01:41:30.757Z,-4.97
2017-01-20T01:42:12.422Z,-4.95
2017-01-20T01:42:54.165Z,-5
2017-01-20T01:43:35.934Z,-5.04
2017-01-20T01:44:17.652Z,-4.95
2017-01-20T01:46:12.450Z,-4.93
2017-01-20T01:46:54.029Z,-4.97
2017-01-20T01:47:35.660Z,-4.99
2017-01-20T01:49:14.707Z,-4.99
2017-01-20T01:49:56.307Z,-4.97
2017-01-20T01:50:37.833Z,-4.96
2017-01-20T01:52:37.882Z,-5.11
2017-01-20T01:53:19.587Z,-5.11
2017-01-20T01:54:01.160Z,-5.1
2017-01-20T01:54:42.953Z,-5.17
2017-01-20T01:55:24.624Z,-5.17
2017-01-20T01:56:06.420Z,-5.1
2017-01-20T01:56:48.148Z,-5.07
2017-01-20T01:57:29.708Z,-5.17
2017-01-20T01:58:11.181Z,-5.17
2017-01-20T01:58:52.716Z,-5.22
2017-01-20T01:59:34.510Z,-5.18
2017-01-20T02:00:15.567Z,-5.22
2017-01-20T02:00:56.094Z,-5.23
2017-01-20T02:01:36.632Z,-5.18
2017-01-20T02:02:17.160Z,-5.23
2017-01-20T02:02:57.689Z,-5.25
2017-01-20T02:03:38.210Z,-5.19
2017-01-20T02:04:18.721Z,-5.26
2017-01-20T02:04:59.272Z,-5.32
2017-01-20T02:05:39.800Z,-5.3
2017-01-20T02:06:20.312Z,-5.29
2017-01-20T02:07:00.885Z,-5.3
2017-01-20T02:07:41.412Z,-5.29
2017-01-20T02:08:21.937Z,-5.36
2017-01-20T02:09:02.457Z,-5.35
2017-01-20T02:09:42.991Z,-5.35
2017-01-20T02:10:23.520Z,-5.27
2017-01-20T02:11:04.048Z,-5.37
2017-01-20T02:11:44.575Z,-5.3
2017-01-20T02:12:25.101Z,-5.3
2017-01-20T02:13:05.626Z,-5.35
2017-01-20T02:13:46.151Z,-5.29
2017-01-20T02:14:26.690Z,-5.3
2017-01-20T02:15:07.218Z,-5.32
2017-01-20T02:15:47.739Z,-5.35
2017-01-20T02:16:28.268Z,-5.29
2017-01-20T02:17:08.799Z,-5.35
2017-01-20T02:17:49.329Z,-5.37
2017-01-20T02:18:29.862Z,-5.37
2017-01-20T02:19:10.378Z,-5.35
2017-01-20T02:19:50.908Z,-5.35
2017-01-20T02:20:31.432Z,-5.37
2017-01-20T02:21:11.947Z,-5.33
2017-01-20T02:21:52.486Z,-5.37
2017-01-20T02:22:33.016Z,-5.37
2017-01-20T02:23:13.545Z,-5.36
2017-01-20T02:23:54.064Z,-5.37
2017-01-20T02:24:34.589Z,-5.41
2017-01-20T02:25:15.118Z,-5.33
2017-01-20T02:25:55.646Z,-5.35
2017-01-20T02:26:36.176Z,-5.37
2017-01-20T02:27:16.705Z,-5.44
2017-01-20T02:27:57.227Z,-5.41
2017-01-20T02:28:37.757Z,-5.48
2017-01-20T02:29:18.286Z,-5.47
2017-01-20T02:29:58.817Z,-5.51
2017-01-20T02:30:39.346Z,-5.47
2017-01-20T02:31:19.872Z,-5.46
2017-01-20T02:32:00.400Z,-5.43
2017-01-20T02:32:40.917Z,-5.48
2017-01-20T02:33:21.441Z,-5.44
2017-01-20T02:34:01.973Z,-5.43
2017-01-20T02:34:42.504Z,-5.44
2017-01-20T02:35:23.032Z,-5.55
2017-01-20T02:36:03.561Z,-5.44
2017-01-20T02:36:44.087Z,-5.46
2017-01-20T02:37:24.613Z,-5.5
2017-01-20T02:38:05.151Z,-5.51
2017-01-20T02:38:45.676Z,-5.55
2017-01-20T02:39:26.201Z,-5.55
2017-01-20T02:40:06.724Z,-5.46
2017-01-20T02:40:47.247Z,-5.5
2017-01-20T02:41:27.773Z,-5.55
2017-01-20T02:42:08.294Z,-5.57
2017-01-20T02:42:48.817Z,-5.41
2017-01-20T02:43:29.352Z,-5.57
2017-01-20T02:44:09.881Z,-5.55
2017-01-20T02:44:50.397Z,-5.48
2017-01-20T02:45:30.926Z,-5.48
2017-01-20T02:46:11.462Z,-5.47
2017-01-20T02:46:51.980Z,-5.5
2017-01-20T02:47:32.505Z,-5.5
2017-01-20T02:48:13.028Z,-5.47
2017-01-20T02:48:53.554Z,-5.46
2017-01-20T02:49:34.083Z,-5.48
2017-01-20T02:50:14.614Z,-5.5
2017-01-20T02:50:55.139Z,-5.46
2017-01-20T02:51:35.666Z,-5.39
2017-01-20T02:52:16.205Z,-5.51
2017-01-20T02:52:56.734Z,-5.48
2017-01-20T02:53:37.263Z,-5.47
2017-01-20T02:54:17.781Z,-5.47
2017-01-20T02:54:58.320Z,-5.47
2017-01-20T02:55:38.883Z,-5.59
2017-01-20T02:56:19.405Z,-5.48
2017-01-20T02:56:59.938Z,-5.5
2017-01-20T02:57:40.466Z,-5.55
2017-01-20T02:58:20.984Z,-5.61
2017-01-20T02:59:01.518Z,-5.61
2017-01-20T02:59:42.050Z,-5.55
2017-01-20T03:00:22.580Z,-5.55
2017-01-20T03:01:03.106Z,-5.53
2017-01-20T03:01:43.634Z,-5.55
2017-01-20T03:02:24.169Z,-5.53
2017-01-20T03:03:04.701Z,-5.55
2017-01-20T03:03:45.232Z,-5.55
2017-01-20T03:04:25.758Z,-5.53
2017-01-20T03:05:06.286Z,-5.53
2017-01-20T03:05:46.818Z,-5.57
2017-01-20T03:06:27.346Z,-5.53
2017-01-20T03:07:07.879Z,-5.51
2017-01-20T03:07:48.411Z,-5.54
2017-01-20T03:08:28.930Z,-5.64
2017-01-20T03:09:09.466Z,-5.62
2017-01-20T03:09:49.993Z,-5.55
2017-01-20T03:10:30.523Z,-5.54
2017-01-20T03:11:11.047Z,-5.64
2017-01-20T03:11:51.579Z,-5.61
2017-01-20T03:12:32.111Z,-5.59
2017-01-20T03:13:12.624Z,-5.64
2017-01-20T03:13:53.155Z,-5.65
2017-01-20T03:14:33.679Z,-5.62
2017-01-20T03:15:14.207Z,-5.65
2017-01-20T03:15:54.729Z,-5.66
2017-01-20T03:16:35.253Z,-5.65
2017-01-20T03:17:15.777Z,-5.69
2017-01-20T03:17:56.309Z,-5.68
2017-01-20T03:18:36.841Z,-5.62
2017-01-20T03:19:17.364Z,-5.62
2017-01-20T03:19:57.894Z,-5.68
2017-01-20T03:20:38.433Z,-5.64
2017-01-20T03:21:18.972Z,-5.66
2017-01-20T03:21:59.500Z,-5.65
2017-01-20T03:22:40.023Z,-5.68
2017-01-20T03:23:20.555Z,-5.68
2017-01-20T03:24:01.080Z,-5.76
2017-01-20T03:24:41.601Z,-5.83
2017-01-20T03:25:22.141Z,-5.74
2017-01-20T03:26:02.653Z,-5.74
2017-01-20T03:26:43.183Z,-5.72
2017-01-20T03:27:23.701Z,-5.83
2017-01-20T03:28:04.221Z,-5.79
2017-01-20T03:28:44.753Z,-5.8
2017-01-20T03:29:25.277Z,-5.83
2017-01-20T03:30:05.808Z,-5.82
2017-01-20T03:30:46.334Z,-5.82
2017-01-20T03:31:26.864Z,-5.82
2017-01-20T03:32:07.396Z,-5.87
2017-01-20T03:32:47.928Z,-5.87
2017-01-20T03:33:28.449Z,-5.87
2017-01-20T03:34:08.973Z,-5.84
2017-01-20T03:34:49.504Z,-5.87
2017-01-20T03:35:30.027Z,-5.9
2017-01-20T03:36:10.556Z,-5.87
2017-01-20T03:36:51.087Z,-5.92
2017-01-20T03:37:31.616Z,-5.84
2017-01-20T03:38:12.141Z,-5.9
2017-01-20T03:38:52.680Z,-5.92
2017-01-20T03:39:33.208Z,-5.92
2017-01-20T03:40:13.746Z,-5.89
2017-01-20T03:40:54.261Z,-5.86
2017-01-20T03:41:34.789Z,-5.93
2017-01-20T03:42:15.323Z,-5.97
2017-01-20T03:42:55.842Z,-5.89
2017-01-20T03:43:36.370Z,-5.93
2017-01-20T03:44:16.889Z,-5.97
2017-01-20T03:44:57.434Z,-5.87
2017-01-20T03:45:37.960Z,-5.93
2017-01-20T03:46:18.484Z,-5.86
2017-01-20T03:46:59.014Z,-5.89
2017-01-20T03:47:39.556Z,-5.76
2017-01-20T03:48:20.085Z,-5.8
2017-01-20T03:49:00.608Z,-5.9
2017-01-20T03:49:41.137Z,-5.8
2017-01-20T03:50:21.665Z,-5.84
2017-01-20T03:51:02.194Z,-5.79
2017-01-20T03:51:42.717Z,-5.87
2017-01-20T03:52:23.245Z,-5.83
2017-01-20T03:53:03.769Z,-5.75
2017-01-20T03:53:44.297Z,-5.84
2017-01-20T03:54:24.824Z,-5.87
2017-01-20T03:55:05.336Z,-5.86
2017-01-20T03:55:45.865Z,-5.87
2017-01-20T03:56:26.392Z,-5.84
2017-01-20T03:57:06.942Z,-5.9
2017-01-20T03:57:47.470Z,-5.9
2017-01-20T03:58:28.000Z,-5.87
2017-01-20T03:59:08.521Z,-5.92
2017-01-20T03:59:49.051Z,-6.03
2017-01-20T04:00:29.577Z,-5.9
2017-01-20T04:01:10.102Z,-5.92
2017-01-20T04:01:50.630Z,-5.93
2017-01-20T04:02:31.155Z,-5.86
2017-01-20T04:03:11.687Z,-5.84
2017-01-20T04:03:52.220Z,-5.89
2017-01-20T04:04:32.752Z,-5.87
2017-01-20T04:05:13.274Z,-5.86
2017-01-20T04:05:53.807Z,-5.92
2017-01-20T04:06:34.339Z,-5.86
2017-01-20T04:07:14.873Z,-5.93
2017-01-20T04:07:55.402Z,-5.87
2017-01-20T04:08:35.922Z,-5.84
2017-01-20T04:09:16.459Z,-5.84
2017-01-20T04:09:57.009Z,-5.87
2017-01-20T04:10:37.536Z,-5.84
2017-01-20T04:11:18.075Z,-5.92
2017-01-20T04:11:58.597Z,-5.87
2017-01-20T04:12:39.132Z,-5.89
2017-01-20T04:13:19.662Z,-5.93
2017-01-20T04:14:00.199Z,-5.89
2017-01-20T04:14:40.724Z,-5.94
2017-01-20T04:15:21.254Z,-5.93
2017-01-20T04:16:01.782Z,-5.94
2017-01-20T04:16:42.313Z,-5.92
2017-01-20T04:17:22.850Z,-6.01
2017-01-20T04:18:03.380Z,-5.94
2017-01-20T04:18:43.908Z,-5.98
2017-01-20T04:19:24.423Z,-5.94
2017-01-20T04:20:04.950Z,-6.01
2017-01-20T04:20:45.483Z,-6.01
2017-01-20T04:21:26.007Z,-6.01
2017-01-20T04:22:06.532Z,-5.98
2017-01-20T04:22:47.061Z,-6.01
2017-01-20T04:23:27.586Z,-6.01
2017-01-20T04:24:08.118Z,-6
2017-01-20T04:24:48.645Z,-5.97
2017-01-20T04:25:29.179Z,-5.87
2017-01-20T04:26:09.704Z,-5.94
2017-01-20T04:26:50.230Z,-5.9
2017-01-20T04:27:30.745Z,-5.94
2017-01-20T04:28:11.276Z,-6.03
2017-01-20T04:28:51.802Z,-5.93
2017-01-20T04:29:32.332Z,-6.01
2017-01-20T04:30:12.860Z,-5.97
2017-01-20T04:30:53.401Z,-6.03
2017-01-20T04:31:33.939Z,-5.87
2017-01-20T04:32:14.466Z,-6.01
2017-01-20T04:32:55.003Z,-5.97
2017-01-20T04:33:35.532Z,-5.93
2017-01-20T04:34:16.063Z,-6
2017-01-20T04:34:56.585Z,-5.94
2017-01-20T04:35:37.130Z,-6.01
2017-01-20T04:36:17.660Z,-6.01
2017-01-20T04:36:58.189Z,-6.01
2017-01-20T04:37:38.715Z,-6
2017-01-20T04:38:19.239Z,-6
2017-01-20T04:38:59.770Z,-5.98
2017-01-20T04:39:40.311Z,-6
2017-01-20T04:40:20.846Z,-6.03
2017-01-20T04:41:01.370Z,-6.08
2017-01-20T04:41:41.896Z,-6.08
2017-01-20T04:42:22.421Z,-6.01
2017-01-20T04:43:02.963Z,-6.08
2017-01-20T04:43:43.507Z,-6.05
2017-01-20T04:44:24.045Z,-6.13
2017-01-20T04:45:04.572Z,-6.18
2017-01-20T04:45:45.098Z,-6.15
2017-01-20T04:46:25.621Z,-6.16
2017-01-20T04:47:06.168Z,-6.1
2017-01-20T04:47:46.689Z,-6.22
2017-01-20T04:48:27.218Z,-6.11
2017-01-20T04:49:07.743Z,-6.11
2017-01-20T04:49:48.276Z,-6.13
2017-01-20T04:50:28.818Z,-6.19
2017-01-20T04:51:09.350Z,-6.13
2017-01-20T04:51:49.899Z,-6.18
2017-01-20T04:52:30.427Z,-6.18
2017-01-20T04:53:10.955Z,-6.15
2017-01-20T04:53:51.482Z,-6.08
2017-01-20T04:54:32.018Z,-6.13
2017-01-20T04:55:12.547Z,-6.07
2017-01-20T04:55:53.066Z,-6.1
2017-01-20T04:56:33.599Z,-6.08
2017-01-20T04:57:14.131Z,-6.05
2017-01-20T04:57:54.674Z,-6.11
2017-01-20T04:58:35.203Z,-6.11
2017-01-20T04:59:15.728Z,-6.07
2017-01-20T04:59:56.248Z,-6.08
2017-01-20T05:00:36.858Z,-6.15
2017-01-20T05:01:17.388Z,-6.08
2017-01-20T05:01:57.913Z,-6.13
2017-01-20T05:02:38.434Z,-6.15
2017-01-20T05:03:18.955Z,-6.11
2017-01-20T05:03:59.493Z,-6.18
2017-01-20T05:04:40.020Z,-6.21
2017-01-20T05:05:20.558Z,-6.13
2017-01-20T05:06:01.080Z,-6.15
2017-01-20T05:06:41.606Z,-6.21
2017-01-20T05:07:22.139Z,-6.13
2017-01-20T05:08:02.666Z,-6.13
2017-01-20T05:08:43.194Z,-6.15
2017-01-20T05:09:23.719Z,-6.15
2017-01-20T05:10:04.252Z,-6.15
2017-01-20T05:10:44.778Z,-6.15
2017-01-20T05:11:25.313Z,-6.05
2017-01-20T05:12:05.906Z,-6.13
2017-01-20T05:12:46.445Z,-6.11
2017-01-20T05:13:26.970Z,-6.1
2017-01-20T05:14:07.507Z,-6.08
2017-01-20T05:14:48.101Z,-6.1
2017-01-20T05:15:28.661Z,-6.16
2017-01-20T05:16:09.216Z,-6.11
2017-01-20T05:16:49.737Z,-6.19
2017-01-20T05:17:30.266Z,-6.13
2017-01-20T05:18:10.801Z,-6.08
2017-01-20T05:18:51.343Z,-6.21
2017-01-20T05:19:31.871Z,-6.11
2017-01-20T05:20:12.407Z,-6.23
2017-01-20T05:20:52.926Z,-6.23
2017-01-20T05:21:33.449Z,-6.15
2017-01-20T05:22:13.998Z,-6.16
2017-01-20T05:22:54.526Z,-6.28
2017-01-20T05:23:35.056Z,-6.18
2017-01-20T05:24:15.587Z,-6.22
2017-01-20T05:24:56.122Z,-6.18
2017-01-20T05:25:36.653Z,-6.18
2017-01-20T05:26:17.197Z,-6.21
2017-01-20T05:26:57.735Z,-6.28
2017-01-20T05:27:38.269Z,-6.25
2017-01-20T05:28:18.810Z,-6.28
2017-01-20T05:28:59.389Z,-6.36
2017-01-20T05:29:39.926Z,-6.28
2017-01-20T05:30:20.461Z,-6.37
2017-01-20T05:31:01.171Z,-6.36
2017-01-20T05:31:41.799Z,-6.32
2017-01-20T05:32:22.485Z,-6.28
2017-01-20T05:33:03.093Z,-6.4
2017-01-20T05:34:52.049Z,-6.32
2017-01-20T05:35:32.616Z,-6.26
2017-01-20T05:36:13.199Z,-6.32
2017-01-20T05:36:53.826Z,-6.31
2017-01-20T05:37:34.479Z,-6.28
2017-01-20T05:38:15.274Z,-6.32
2017-01-20T05:38:55.964Z,-6.29
2017-01-20T05:39:36.563Z,-6.36
2017-01-20T05:40:17.133Z,-6.31
2017-01-20T05:40:57.674Z,-6.34
2017-01-20T05:41:38.216Z,-6.34
2017-01-20T05:42:18.841Z,-6.28
2017-01-20T05:42:59.465Z,-6.39
2017-01-20T05:43:40.095Z,-6.36
2017-01-20T05:44:20.708Z,-6.34
2017-01-20T05:45:01.328Z,-6.36
2017-01-20T05:45:41.924Z,-6.32
2017-01-20T05:46:22.437Z,-6.47
2017-01-20T05:47:02.966Z,-6.31
2017-01-20T05:47:43.489Z,-6.43
2017-01-20T05:48:24.009Z,-6.4
2017-01-20T05:49:04.575Z,-6.34
2017-01-20T05:49:45.145Z,-6.4
2017-01-20T05:50:25.701Z,-6.4
2017-01-20T05:51:06.237Z,-6.44
2017-01-20T05:51:46.836Z,-6.46
2017-01-20T05:52:27.363Z,-6.39
2017-01-20T05:53:07.937Z,-6.43
2017-01-20T05:53:48.576Z,-6.34
2017-01-20T05:54:29.185Z,-6.43
2017-01-20T05:55:09.734Z,-6.42
2017-01-20T05:55:50.359Z,-6.44
2017-01-20T05:56:30.866Z,-6.44
2017-01-20T05:57:11.355Z,-6.4
2017-01-20T05:57:51.870Z,-6.46
2017-01-20T05:58:32.388Z,-6.47
2017-01-20T05:59:12.889Z,-6.44
2017-01-20T05:59:53.428Z,-6.4
2017-01-20T06:00:33.936Z,-6.49
2017-01-20T06:01:14.460Z,-6.4
2017-01-20T06:01:54.981Z,-6.34
2017-01-20T06:02:35.526Z,-6.4
2017-01-20T06:03:16.054Z,-6.52
2017-01-20T06:03:56.590Z,-6.39
2017-01-20T06:04:37.112Z,-6.39
2017-01-20T06:05:17.622Z,-6.42
2017-01-20T06:05:58.153Z,-6.39
2017-01-20T06:06:38.682Z,-6.4
2017-01-20T06:07:19.216Z,-6.37
2017-01-20T06:07:59.744Z,-6.32
2017-01-20T06:08:40.271Z,-6.47
2017-01-20T06:09:20.824Z,-6.29
2017-01-20T06:10:01.332Z,-6.28
2017-01-20T06:10:41.858Z,-6.29
2017-01-20T06:11:22.390Z,-6.25
2017-01-20T06:12:02.918Z,-6.21
2017-01-20T06:12:43.445Z,-6.26
2017-01-20T06:13:23.985Z,-6.26
2017-01-20T06:14:04.512Z,-6.28
2017-01-20T06:14:45.073Z,-6.31
2017-01-20T06:15:25.604Z,-6.29
2017-01-20T06:16:06.131Z,-6.34
2017-01-20T06:16:46.660Z,-6.31
2017-01-20T06:17:27.181Z,-6.19
2017-01-20T06:18:07.704Z,-6.25
2017-01-20T06:18:48.232Z,-6.39
2017-01-20T06:19:28.776Z,-6.34
2017-01-20T06:20:09.293Z,-6.39
2017-01-20T06:20:49.818Z,-6.43
2017-01-20T06:21:30.347Z,-6.46
2017-01-20T06:22:10.877Z,-6.36
2017-01-20T06:22:51.412Z,-6.39
2017-01-20T06:23:31.941Z,-6.44
2017-01-20T06:24:12.473Z,-6.36
2017-01-20T06:24:53.003Z,-6.42
2017-01-20T06:25:33.534Z,-6.5
2017-01-20T06:26:14.063Z,-6.44
2017-01-20T06:26:54.596Z,-6.49
2017-01-20T06:27:35.133Z,-6.44
2017-01-20T06:28:15.676Z,-6.43
2017-01-20T06:28:56.207Z,-6.46
2017-01-20T06:29:36.733Z,-6.43
2017-01-20T06:30:17.280Z,-6.49
2017-01-20T06:30:57.799Z,-6.47
2017-01-20T06:31:38.336Z,-6.44
2017-01-20T06:32:18.863Z,-6.49
2017-01-20T06:32:59.388Z,-6.52
2017-01-20T06:33:39.926Z,-6.43
2017-01-20T06:34:20.446Z,-6.46
2017-01-20T06:35:00.976Z,-6.44
2017-01-20T06:35:41.508Z,-6.44
2017-01-20T06:36:22.036Z,-6.46
2017-01-20T06:37:02.555Z,-6.44
2017-01-20T06:37:43.086Z,-6.46
2017-01-20T06:38:23.610Z,-6.47
2017-01-20T06:39:04.142Z,-6.47
2017-01-20T06:39:44.671Z,-6.42
2017-01-20T06:40:25.202Z,-6.49
2017-01-20T06:42:14.161Z,-6.44
2017-01-20T06:42:54.688Z,-6.5
2017-01-20T06:43:35.225Z,-6.5
2017-01-20T06:44:15.747Z,-6.5
2017-01-20T06:44:56.278Z,-6.52
2017-01-20T06:45:36.885Z,-6.52
2017-01-20T06:46:17.417Z,-6.47
2017-01-20T06:46:57.942Z,-6.46
2017-01-20T06:47:38.464Z,-6.49
2017-01-20T06:48:18.986Z,-6.52
2017-01-20T06:48:59.516Z,-6.5
2017-01-20T06:49:40.040Z,-6.46
2017-01-20T06:50:20.569Z,-6.5
2017-01-20T06:51:01.088Z,-6.52
2017-01-20T06:51:41.611Z,-6.5
2017-01-20T06:52:22.144Z,-6.47
2017-01-20T06:53:02.663Z,-6.52
2017-01-20T06:53:43.193Z,-6.47
2017-01-20T06:54:23.709Z,-6.47
2017-01-20T06:55:04.236Z,-6.5
2017-01-20T06:55:44.756Z,-6.46
2017-01-20T06:56:25.299Z,-6.49
2017-01-20T06:57:05.805Z,-6.49
2017-01-20T06:57:46.334Z,-6.42
2017-01-20T06:58:27.923Z,-6.4
2017-01-20T06:59:08.451Z,-6.39
2017-01-20T06:59:48.991Z,-6.52
2017-01-20T07:00:29.522Z,-6.39
2017-01-20T07:01:10.050Z,-6.4
2017-01-20T07:01:50.574Z,-6.49
2017-01-20T07:02:31.086Z,-6.34
2017-01-20T07:03:11.613Z,-6.39
2017-01-20T07:03:52.140Z,-6.44
2017-01-20T07:04:32.666Z,-6.31
2017-01-20T07:05:13.196Z,-6.37
2017-01-20T07:05:53.742Z,-6.34
2017-01-20T07:06:34.277Z,-6.34
2017-01-20T07:07:14.878Z,-6.39
2017-01-20T07:07:55.404Z,-6.37
2017-01-20T07:08:35.931Z,-6.31
2017-01-20T07:09:16.460Z,-6.5
2017-01-20T07:09:56.989Z,-6.44
2017-01-20T07:10:37.520Z,-6.5
2017-01-20T07:11:18.055Z,-6.49
2017-01-20T07:11:58.621Z,-6.46
2017-01-20T07:12:39.149Z,-6.5
2017-01-20T07:13:19.678Z,-6.55
2017-01-20T07:14:00.215Z,-6.5
2017-01-20T07:14:40.729Z,-6.5
2017-01-20T07:15:21.260Z,-6.52
2017-01-20T07:16:01.793Z,-6.55
2017-01-20T07:16:42.321Z,-6.52
2017-01-20T07:17:22.975Z,-6.61
2017-01-20T07:18:04.660Z,-6.54
2017-01-20T07:18:45.219Z,-6.49
2017-01-20T07:19:25.770Z,-6.5
2017-01-20T07:20:06.271Z,-6.54
2017-01-20T07:20:47.954Z,-6.49
2017-01-20T07:21:29.056Z,-6.54
2017-01-20T07:22:09.583Z,-6.55
2017-01-20T07:22:50.101Z,-6.5
2017-01-20T07:23:30.623Z,-6.55
2017-01-20T07:24:11.149Z,-6.5
2017-01-20T07:24:51.671Z,-6.62
2017-01-20T07:25:32.221Z,-6.55
2017-01-20T07:26:12.752Z,-6.54
2017-01-20T07:26:53.300Z,-6.54
2017-01-20T07:27:33.823Z,-6.59
2017-01-20T07:28:14.346Z,-6.58
2017-01-20T07:28:54.871Z,-6.49
2017-01-20T07:29:35.404Z,-6.58
2017-01-20T07:30:15.931Z,-6.47
2017-01-20T07:30:56.460Z,-6.61
2017-01-20T07:31:36.992Z,-6.52
2017-01-20T07:32:17.518Z,-6.55
2017-01-20T07:32:58.055Z,-6.59
2017-01-20T07:33:38.583Z,-6.49
2017-01-20T07:34:19.112Z,-6.55
2017-01-20T07:34:59.642Z,-6.59
2017-01-20T07:35:40.239Z,-6.58
2017-01-20T07:36:20.767Z,-6.47
2017-01-20T07:37:01.291Z,-6.58
2017-01-20T07:37:41.830Z,-6.47
2017-01-20T07:38:22.350Z,-6.49
2017-01-20T07:39:02.893Z,-6.5
2017-01-20T07:39:43.421Z,-6.52
2017-01-20T07:40:23.940Z,-6.5
2017-01-20T07:41:04.470Z,-6.47
2017-01-20T07:41:44.992Z,-6.5
2017-01-20T07:42:25.519Z,-6.54
2017-01-20T07:43:06.045Z,-6.47
2017-01-20T07:43:46.569Z,-6.5
2017-01-20T07:44:27.098Z,-6.44
2017-01-20T07:45:07.628Z,-6.49
2017-01-20T07:45:48.161Z,-6.47
2017-01-20T07:46:28.684Z,-6.52
2017-01-20T07:47:09.221Z,-6.52
2017-01-20T07:47:49.749Z,-6.55
2017-01-20T07:48:30.276Z,-6.59
2017-01-20T07:49:10.798Z,-6.5
2017-01-20T07:49:51.326Z,-6.49
2017-01-20T07:50:31.855Z,-6.52
2017-01-20T07:51:12.393Z,-6.58
2017-01-20T07:51:52.923Z,-6.54
2017-01-20T07:52:33.451Z,-6.58
2017-01-20T07:53:13.976Z,-6.54
2017-01-20T07:53:54.492Z,-6.54
2017-01-20T07:54:35.020Z,-6.5
2017-01-20T07:55:15.550Z,-6.49
2017-01-20T07:55:56.067Z,-6.46
2017-01-20T07:56:36.583Z,-6.59
2017-01-20T07:57:17.105Z,-6.55
2017-01-20T07:57:57.628Z,-6.49
2017-01-20T07:58:38.155Z,-6.59
2017-01-20T07:59:18.691Z,-6.49
2017-01-20T07:59:59.224Z,-6.46
2017-01-20T08:00:39.756Z,-6.43
2017-01-20T08:01:20.278Z,-6.43
2017-01-20T08:02:00.811Z,-6.5
2017-01-20T08:02:41.346Z,-6.44
2017-01-20T08:03:21.876Z,-6.44
2017-01-20T08:04:02.407Z,-6.46
2017-01-20T08:04:42.933Z,-6.39
2017-01-20T08:05:23.475Z,-6.4
2017-01-20T08:06:03.998Z,-6.36
2017-01-20T08:06:44.549Z,-6.31
2017-01-20T08:07:25.077Z,-6.28
2017-01-20T08:08:05.607Z,-6.34
2017-01-20T08:08:46.137Z,-6.21
2017-01-20T08:09:26.661Z,-6.21
2017-01-20T08:10:07.295Z,-6.22
2017-01-20T08:10:47.825Z,-6.29
2017-01-20T08:11:28.351Z,-6.28
2017-01-20T08:12:08.876Z,-6.29
2017-01-20T08:12:49.412Z,-6.28
2017-01-20T08:13:29.952Z,-6.25
2017-01-20T08:14:10.464Z,-6.22
2017-01-20T08:14:50.981Z,-6.22
2017-01-20T08:15:31.511Z,-6.15
2017-01-20T08:16:12.046Z,-6.19
2017-01-20T08:16:52.574Z,-6.19
2017-01-20T08:17:33.088Z,-6.15
2017-01-20T08:18:13.617Z,-6.15
2017-01-20T08:18:54.145Z,-6.05
2017-01-20T08:19:34.682Z,-6.05
2017-01-20T08:20:15.198Z,-6.07
2017-01-20T08:20:55.728Z,-6.01
2017-01-20T08:21:36.255Z,-5.97
2017-01-20T08:22:16.786Z,-5.98
2017-01-20T08:22:57.320Z,-5.97
2017-01-20T08:23:37.918Z,-5.87
2017-01-20T08:24:18.441Z,-5.87
2017-01-20T08:24:58.969Z,-5.86
2017-01-20T08:25:39.499Z,-5.92
2017-01-20T08:26:20.014Z,-5.89
2017-01-20T08:27:00.547Z,-5.82
2017-01-20T08:27:41.079Z,-5.89
2017-01-20T08:28:21.603Z,-5.82
2017-01-20T08:29:02.133Z,-5.83
2017-01-20T08:29:42.659Z,-5.82
2017-01-20T08:30:23.181Z,-5.8
2017-01-20T08:31:03.706Z,-5.76
2017-01-20T08:31:44.237Z,-5.76
2017-01-20T08:32:24.766Z,-5.75
2017-01-20T08:33:05.291Z,-5.74
2017-01-20T08:33:45.819Z,-5.72
2017-01-20T08:34:26.336Z,-5.75
2017-01-20T08:35:06.856Z,-5.66
2017-01-20T08:35:47.392Z,-5.59
2017-01-20T08:36:27.922Z,-5.66
2017-01-20T08:37:08.446Z,-5.66
2017-01-20T08:37:48.973Z,-5.68
2017-01-20T08:38:29.499Z,-5.66
2017-01-20T08:39:10.020Z,-5.68
2017-01-20T08:39:50.536Z,-5.54
2017-01-20T08:40:31.069Z,-5.62
2017-01-20T08:41:11.592Z,-5.59
2017-01-20T08:41:52.123Z,-5.57
2017-01-20T08:42:32.638Z,-5.53
2017-01-20T08:43:13.175Z,-5.55
2017-01-20T08:43:53.715Z,-5.5
2017-01-20T08:44:34.247Z,-5.43
2017-01-20T08:45:14.771Z,-5.39
2017-01-20T08:45:55.303Z,-5.27
2017-01-20T08:46:35.835Z,-5.27
2017-01-20T08:47:16.354Z,-5.3
2017-01-20T08:47:56.887Z,-5.27
2017-01-20T08:48:37.422Z,-5.25
2017-01-20T08:49:17.942Z,-5.23
2017-01-20T08:49:58.473Z,-5.17
2017-01-20T08:50:38.987Z,-5.17
2017-01-20T08:51:19.519Z,-5.11
2017-01-20T08:52:00.045Z,-5.13
2017-01-20T08:52:40.573Z,-5.13
2017-01-20T08:53:21.103Z,-5.17
2017-01-20T08:54:01.633Z,-5.1
2017-01-20T08:54:42.162Z,-5.14
2017-01-20T08:55:22.697Z,-5.06
2017-01-20T08:56:03.219Z,-4.95
2017-01-20T08:56:43.746Z,-4.96
2017-01-20T08:57:24.277Z,-5
2017-01-20T08:58:04.794Z,-4.99
2017-01-20T08:58:45.326Z,-4.99
2017-01-20T08:59:25.854Z,-4.9
2017-01-20T09:00:06.386Z,-4.86
2017-01-20T09:00:46.915Z,-4.96
2017-01-20T09:01:27.447Z,-4.79
2017-01-20T09:02:07.978Z,-4.83
2017-01-20T09:02:48.509Z,-4.78
2017-01-20T09:03:29.035Z,-4.71
2017-01-20T09:04:09.565Z,-4.57
2017-01-20T09:04:50.087Z,-4.58
2017-01-20T09:05:30.623Z,-4.46
2017-01-20T09:06:11.153Z,-4.32
2017-01-20T09:06:51.682Z,-4.24
2017-01-20T09:07:32.201Z,-4.11
2017-01-20T09:08:12.748Z,-4.04
2017-01-20T09:08:53.275Z,-3.86
2017-01-20T09:09:33.806Z,-3.76
2017-01-20T09:10:14.335Z,-3.72
2017-01-20T09:10:54.864Z,-3.56
2017-01-20T09:11:35.389Z,-3.42
2017-01-20T09:12:15.926Z,-3.3
2017-01-20T09:12:56.463Z,-3.17
2017-01-20T09:13:36.991Z,-3.17
2017-01-20T09:14:17.518Z,-3.07
2017-01-20T09:14:58.052Z,-3.03
2017-01-20T09:15:38.585Z,-2.92